HBLMB LSZG-LSZB

Flight info

Callsign HBLMB
Flight time 0h 42m
Altitude 5500
Route ZGE DCT WIL DCT ZBE
Aircraft DA42/L-SBDFGLORVYZ/EB2

Departure

Time 2026-05-04 08:52
Airport Grenchen Airfield (LSZG)

Arrival

Time 2026-05-04 09:35
Airport Bern Airport (LSZB)
Time Latitude Longitude Altitude Speed Heading
2026-05-04 08:17 47.18190 7.41237 1415 ft 0 kts 245°
2026-05-04 08:27 47.18190 7.41238 1415 ft 0 kts 245°
2026-05-04 08:41 47.18190 7.41237 1415 ft 0 kts 245°
2026-05-04 08:47 47.18174 7.41233 1415 ft 5 kts 158°
2026-05-04 08:47 47.18124 7.41247 1415 ft 6 kts 238°
2026-05-04 08:47 47.18099 7.41167 1415 ft 10 kts 250°
2026-05-04 08:48 47.18070 7.41126 1415 ft 7 kts 154°
2026-05-04 08:48 47.18032 7.41149 1414 ft 0 kts 157°
2026-05-04 08:50 47.18015 7.41164 1415 ft 5 kts 153°
2026-05-04 08:50 47.18002 7.41202 1413 ft 5 kts 66°
2026-05-04 08:51 47.18003 7.41205 1413 ft 0 kts 61°
2026-05-04 08:51 47.18023 7.41269 1415 ft 27 kts 65°
2026-05-04 08:52 47.18185 7.41794 1420 ft 80 kts 65°
2026-05-04 08:52 47.18425 7.42568 1669 ft 85 kts 66°
2026-05-04 08:52 47.18648 7.43399 1975 ft 90 kts 69°
2026-05-04 08:52 47.18776 7.44311 2329 ft 94 kts 82°
2026-05-04 08:53 47.18812 7.45298 2738 ft 99 kts 80°
2026-05-04 08:54 47.19828 7.53838 3003 ft 130 kts 86°
2026-05-04 08:55 47.19928 7.55155 3003 ft 131 kts 77°
2026-05-04 08:55 47.20164 7.56449 3002 ft 131 kts 72°
2026-05-04 08:55 47.20427 7.57732 2993 ft 132 kts 70°
2026-05-04 08:55 47.20753 7.58987 3006 ft 130 kts 66°
2026-05-04 08:57 47.22022 7.66700 4086 ft 113 kts 107°
2026-05-04 09:01 47.18636 7.85822 5501 ft 163 kts 103°
2026-05-04 09:01 47.18357 7.87464 5484 ft 168 kts 103°
2026-05-04 09:01 47.18070 7.89143 5480 ft 170 kts 103°
2026-05-04 09:01 47.17789 7.90812 5504 ft 167 kts 103°
2026-05-04 09:02 47.17510 7.92466 5505 ft 165 kts 103°
2026-05-04 09:02 47.17236 7.94106 5499 ft 165 kts 102°
2026-05-04 09:02 47.16964 7.95739 5505 ft 165 kts 103°
2026-05-04 09:02 47.16692 7.97376 5505 ft 165 kts 102°
2026-05-04 09:03 47.16417 7.99015 5503 ft 166 kts 103°
2026-05-04 09:03 47.16141 8.00641 5498 ft 166 kts 103°
2026-05-04 09:03 47.15862 8.02290 5501 ft 166 kts 102°
2026-05-04 09:03 47.15583 8.03936 5504 ft 166 kts 103°
2026-05-04 09:04 47.15308 8.05579 5498 ft 164 kts 102°
2026-05-04 09:04 47.15037 8.07190 5501 ft 161 kts 102°
2026-05-04 09:04 47.14764 8.08795 5511 ft 163 kts 103°
2026-05-04 09:04 47.14491 8.10428 5500 ft 165 kts 102°
2026-05-04 09:05 47.14218 8.12047 5497 ft 165 kts 102°
2026-05-04 09:05 47.13938 8.13692 5499 ft 167 kts 102°
2026-05-04 09:05 47.13660 8.15341 5505 ft 165 kts 102°
2026-05-04 09:05 47.13389 8.16959 5504 ft 165 kts 102°
2026-05-04 09:06 47.13417 8.18606 5504 ft 163 kts 69°
2026-05-04 09:07 47.19988 8.13919 5441 ft 183 kts 317°
2026-05-04 09:08 47.20875 8.12586 5449 ft 183 kts 317°
2026-05-04 09:08 47.21765 8.11248 5441 ft 182 kts 317°
2026-05-04 09:08 47.22646 8.09924 5449 ft 181 kts 317°
2026-05-04 09:08 47.23530 8.08594 5442 ft 181 kts 317°
2026-05-04 09:09 47.24409 8.07284 5443 ft 180 kts 317°
2026-05-04 09:09 47.25291 8.05973 5447 ft 180 kts 317°
2026-05-04 09:09 47.26167 8.04650 5451 ft 182 kts 313°
2026-05-04 09:09 47.26659 8.02928 5433 ft 187 kts 276°
2026-05-04 09:10 47.26367 8.01085 5436 ft 186 kts 237°
2026-05-04 09:10 47.25447 7.99779 5445 ft 183 kts 214°
2026-05-04 09:10 47.24449 7.98659 5443 ft 182 kts 215°
2026-05-04 09:10 47.23458 7.97498 5431 ft 182 kts 216°
2026-05-04 09:11 47.22475 7.96320 5442 ft 183 kts 216°
2026-05-04 09:11 47.21489 7.95142 5439 ft 182 kts 217°
2026-05-04 09:11 47.20503 7.93966 5445 ft 183 kts 216°
2026-05-04 09:11 47.19506 7.92775 5448 ft 185 kts 216°
2026-05-04 09:12 47.18507 7.91574 5441 ft 185 kts 219°
2026-05-04 09:12 47.17587 7.90227 5435 ft 189 kts 223°
2026-05-04 09:14 47.11191 7.80866 5441 ft 183 kts 222°
2026-05-04 09:14 47.10287 7.79551 5442 ft 183 kts 222°
2026-05-04 09:14 47.09375 7.78220 5436 ft 186 kts 222°
2026-05-04 09:14 47.08462 7.76879 5425 ft 184 kts 222°
2026-05-04 09:15 47.07554 7.75558 5427 ft 184 kts 222°
2026-05-04 09:15 47.06656 7.74251 5424 ft 185 kts 222°
2026-05-04 09:15 47.05747 7.72922 5437 ft 185 kts 222°
2026-05-04 09:15 47.04830 7.71595 5437 ft 184 kts 222°
2026-05-04 09:17 46.99055 7.70460 5437 ft 171 kts 52°
2026-05-04 09:18 46.99892 7.71678 5494 ft 172 kts 45°
2026-05-04 09:18 47.00791 7.72853 5346 ft 176 kts 44°
2026-05-04 09:18 47.01712 7.74071 5099 ft 180 kts 44°
2026-05-04 09:18 47.02554 7.75195 4879 ft 158 kts 44°
2026-05-04 09:19 47.03343 7.76208 4640 ft 150 kts 41°
2026-05-04 09:19 47.04122 7.77171 4514 ft 138 kts 41°
2026-05-04 09:19 47.04833 7.78027 4496 ft 127 kts 43°
2026-05-04 09:19 47.05490 7.78811 4496 ft 118 kts 37°
2026-05-04 09:20 47.06264 7.79192 4511 ft 125 kts
2026-05-04 09:20 47.07082 7.78583 4513 ft 143 kts 315°
2026-05-04 09:20 47.07412 7.77175 4523 ft 155 kts 270°
2026-05-04 09:20 47.07182 7.75594 4494 ft 161 kts 248°
2026-05-04 09:21 47.06591 7.74225 4525 ft 161 kts 226°
2026-05-04 09:21 47.05810 7.73026 4514 ft 163 kts 223°
2026-05-04 09:21 47.05007 7.71840 4509 ft 162 kts 224°
2026-05-04 09:21 47.04203 7.70662 4504 ft 162 kts 223°
2026-05-04 09:22 47.03415 7.69515 4513 ft 162 kts 223°
2026-05-04 09:22 47.02607 7.68352 4505 ft 163 kts 222°
2026-05-04 09:22 47.01786 7.67165 4493 ft 166 kts 224°
2026-05-04 09:22 47.00954 7.65955 4497 ft 170 kts 223°
2026-05-04 09:23 47.00094 7.64700 4482 ft 177 kts 223°
2026-05-04 09:23 46.99227 7.63433 4493 ft 178 kts 223°
2026-05-04 09:23 46.98589 7.61906 4496 ft 176 kts 257°
2026-05-04 09:23 46.98699 7.60182 4506 ft 171 kts 297°
2026-05-04 09:25 47.04451 7.63430 4490 ft 156 kts 44°
2026-05-04 09:25 47.05239 7.64483 4502 ft 152 kts 44°
2026-05-04 09:26 47.06021 7.65505 4490 ft 152 kts 44°
2026-05-04 09:26 47.06801 7.66544 4504 ft 152 kts 44°
2026-05-04 09:26 47.07579 7.67567 4499 ft 147 kts 44°
2026-05-04 09:26 47.08332 7.68554 4500 ft 144 kts 44°
2026-05-04 09:27 47.09073 7.69515 4508 ft 141 kts 44°
2026-05-04 09:27 47.09801 7.70461 4499 ft 141 kts 44°
2026-05-04 09:27 47.10390 7.71605 4483 ft 142 kts 76°
2026-05-04 09:27 47.10236 7.72970 4522 ft 145 kts 118°
2026-05-04 09:28 47.09395 7.73838 4497 ft 156 kts 162°
2026-05-04 09:28 47.08297 7.73924 4511 ft 158 kts 175°
2026-05-04 09:28 47.07207 7.73778 4503 ft 157 kts 188°
2026-05-04 09:28 47.06152 7.73227 4508 ft 164 kts 205°
2026-05-04 09:29 47.05244 7.72149 4484 ft 167 kts 221°
2026-05-04 09:29 47.04416 7.70989 4478 ft 168 kts 221°
2026-05-04 09:29 47.03603 7.69812 4498 ft 162 kts 224°
2026-05-04 09:29 47.02801 7.68644 4492 ft 162 kts 223°
2026-05-04 09:30 47.02006 7.67480 4503 ft 160 kts 223°
2026-05-04 09:30 47.01216 7.66330 4512 ft 162 kts 223°
2026-05-04 09:30 47.00383 7.65126 4479 ft 175 kts 223°
2026-05-04 09:30 46.99527 7.63873 4502 ft 173 kts 223°
2026-05-04 09:31 46.98690 7.62648 4494 ft 172 kts 223°
2026-05-04 09:31 46.97850 7.61412 4521 ft 174 kts 224°
2026-05-04 09:31 46.96949 7.60126 4491 ft 181 kts 221°
2026-05-04 09:31 46.96081 7.58873 4504 ft 171 kts 223°
2026-05-04 09:32 46.95248 7.57660 4496 ft 169 kts 222°
2026-05-04 09:32 46.94420 7.56531 4250 ft 153 kts 218°
2026-05-04 09:34 46.92890 7.49946 3052 ft 91 kts 330°
2026-05-04 09:34 46.93307 7.49199 2841 ft 100 kts 291°
2026-05-04 09:34 46.93073 7.48201 2451 ft 113 kts 212°
2026-05-04 09:34 46.92439 7.48456 2051 ft 92 kts 138°
2026-05-04 09:35 46.91995 7.49006 1774 ft 82 kts 138°
2026-05-04 09:35 46.91601 7.49481 1678 ft 55 kts 144°
2026-05-04 09:35 46.91376 7.49756 1679 ft 33 kts 140°
2026-05-04 09:35 46.91233 7.49935 1677 ft 21 kts 140°
2026-05-04 09:37 46.91128 7.50305 1679 ft 0 kts 317°